Time;durP1;ratioP1;P1;durP2;ratioP2;P2;SDS_P1;SDS_P2;PMS_P1;PMS_P2;Temp;Humidity;BMP_temperature;BMP_pressure;BME280_temperature;BME280_humidity;BME280_pressure;Samples;Min_cycle;Max_cycle;Signal;HPM_P1;HPM_P2
2022/08/30 00:01:05;;;;;;;8.48;5.72;;;;;;;24.31;nan;-24491.41;4990029;28;20172;-59
2022/08/30 00:03:45;;;;;;;9.25;5.53;;;;;;;24.65;nan;-24500.75;4991864;28;20858;-60
2022/08/30 00:06:13;;;;;;;8.73;5.35;;;;;;;24.17;nan;-24487.69;4991814;28;20271;-60
2022/08/30 00:08:40;;;;;;;13.27;5.30;;;;;;;24.08;nan;-24485.06;4992160;28;20231;-57
2022/08/30 00:11:09;;;;;;;8.27;5.13;;;;;;;24.26;nan;-24489.88;4991547;28;20180;-59
2022/08/30 00:13:37;;;;;;;9.10;5.28;;;;;;;24.15;nan;-24486.97;4993407;28;20203;-59
2022/08/30 00:16:05;;;;;;;7.50;5.10;;;;;;;24.37;nan;-24492.91;4992705;28;20212;-58
2022/08/30 00:18:31;;;;;;;7.57;5.20;;;;;;;24.25;nan;-24489.75;4997531;28;20188;-59
2022/08/30 00:20:57;;;;;;;7.72;4.93;;;;;;;24.00;nan;-24482.84;4996540;28;20234;-58
2022/08/30 00:23:23;;;;;;;10.52;5.35;;;;;;;23.97;nan;-24482.16;4996773;28;20195;-60
2022/08/30 00:25:49;;;;;;;8.23;5.45;;;;;;;23.91;nan;-24480.50;4998223;28;20180;-57
2022/08/30 00:28:15;;;;;;;9.02;5.60;;;;;;;23.91;nan;-24480.50;4996603;28;20192;-59
2022/08/30 00:30:42;;;;;;;8.50;5.25;;;;;;;24.16;nan;-24487.25;4996981;28;20177;-57
2022/08/30 00:33:08;;;;;;;8.75;5.30;;;;;;;23.90;nan;-24480.09;4996195;28;20200;-58
2022/08/30 00:35:34;;;;;;;8.20;5.38;;;;;;;24.24;nan;-24489.47;4996879;28;20204;-60
2022/08/30 00:37:59;;;;;;;7.13;4.90;;;;;;;24.17;nan;-24487.53;4997611;28;20254;-59
2022/08/30 00:40:27;;;;;;;9.85;5.68;;;;;;;23.99;nan;-24482.56;4995284;28;20194;-58
2022/08/30 00:42:58;;;;;;;11.23;5.57;;;;;;;24.02;nan;-24483.41;4998993;28;20662;-62
2022/08/30 00:45:30;;;;;;;7.70;5.10;;;;;;;23.85;nan;-24478.84;4996701;28;20250;-59
2022/08/30 00:47:56;;;;;;;8.02;5.35;;;;;;;24.17;nan;-24487.69;4997347;28;20187;-59
2022/08/30 00:50:27;;;;;;;9.10;4.80;;;;;;;24.26;nan;-24490.03;4997910;28;20211;-59
2022/08/30 00:52:56;;;;;;;8.98;5.40;;;;;;;24.09;nan;-24485.47;4999694;28;20180;-58
2022/08/30 00:55:23;;;;;;;9.15;5.07;;;;;;;24.20;nan;-24488.38;4995999;28;20188;-59
2022/08/30 00:57:52;;;;;;;8.85;5.38;;;;;;;24.20;nan;-24488.50;4997244;28;20685;-60
2022/08/30 01:00:19;;;;;;;8.52;4.95;;;;;;;24.19;nan;-24488.09;4997123;28;20526;-58
2022/08/30 01:02:44;;;;;;;9.48;4.82;;;;;;;24.22;nan;-24488.91;4998500;28;20191;-59
2022/08/30 01:05:11;;;;;;;10.95;5.60;;;;;;;24.12;nan;-24486.16;4997128;28;20184;-57
2022/08/30 01:07:39;;;;;;;8.18;5.00;;;;;;;24.09;nan;-24485.31;4997916;28;20183;-59
2022/08/30 01:10:08;;;;;;;8.57;5.45;;;;;;;23.88;nan;-24479.53;4997045;28;20177;-57
2022/08/30 01:12:35;;;;;;;7.80;5.63;;;;;;;24.19;nan;-24488.09;4998044;28;20218;-58
2022/08/30 01:15:01;;;;;;;7.85;5.20;;;;;;;23.86;nan;-24478.97;4995070;28;20312;-60
2022/08/30 01:17:28;;;;;;;11.35;5.35;;;;;;;23.73;nan;-24475.53;4995462;28;20711;-59
2022/08/30 01:19:59;;;;;;;10.60;5.75;;;;;;;24.24;nan;-24489.47;4996966;28;20250;-59
2022/08/30 01:22:36;;;;;;;8.15;5.05;;;;;;;24.10;nan;-24485.59;4997677;28;20183;-59
2022/08/30 01:25:05;;;;;;;7.55;4.97;;;;;;;23.68;nan;-24474.16;4995576;28;20195;-57
2022/08/30 01:27:31;;;;;;;6.97;4.90;;;;;;;23.97;nan;-24482.00;4995568;28;20196;-58
2022/08/30 01:29:57;;;;;;;7.57;5.07;;;;;;;24.11;nan;-24485.88;4992799;28;20179;-58
2022/08/30 01:32:27;;;;;;;9.73;5.53;;;;;;;23.75;nan;-24476.22;4993418;28;20184;-57
2022/08/30 01:34:54;;;;;;;7.07;4.57;;;;;;;24.11;nan;-24486.00;4993558;28;20211;-59
2022/08/30 01:37:26;;;;;;;8.32;5.78;;;;;;;24.13;nan;-24486.44;4993397;28;20274;-59
2022/08/30 01:39:51;;;;;;;9.02;5.57;;;;;;;23.99;nan;-24482.56;4993636;28;20235;-58
2022/08/30 01:42:17;;;;;;;9.30;5.70;;;;;;;23.82;nan;-24477.88;4994441;28;20188;-58
2022/08/30 01:44:43;;;;;;;10.18;5.35;;;;;;;24.06;nan;-24484.50;4994319;28;20279;-59
2022/08/30 01:47:09;;;;;;;9.27;5.90;;;;;;;24.04;nan;-24483.94;4993604;28;20192;-57
2022/08/30 01:49:36;;;;;;;8.77;5.78;;;;;;;24.12;nan;-24486.16;4993504;28;20188;-57
2022/08/30 01:52:02;;;;;;;8.65;5.15;;;;;;;23.92;nan;-24480.78;4995376;28;20173;-59
2022/08/30 01:54:29;;;;;;;8.40;5.82;;;;;;;24.08;nan;-24485.19;4996122;28;20188;-59
2022/08/30 01:56:55;;;;;;;8.60;5.28;;;;;;;24.02;nan;-24483.41;4992432;28;20252;-59
2022/08/30 01:59:20;;;;;;;8.63;5.53;;;;;;;23.73;nan;-24475.53;4993514;28;20188;-58
2022/08/30 02:01:46;;;;;;;10.27;5.40;;;;;;;23.68;nan;-24474.28;4995561;28;20198;-60
2022/08/30 02:04:13;;;;;;;7.65;5.40;;;;;;;23.80;nan;-24477.47;4993734;28;20192;-57
2022/08/30 02:06:40;;;;;;;8.98;5.75;;;;;;;23.94;nan;-24481.31;4995073;28;20176;-58
2022/08/30 02:09:06;;;;;;;10.50;6.10;;;;;;;23.66;nan;-24473.75;4991209;28;20274;-58
2022/08/30 02:11:31;;;;;;;8.50;5.38;;;;;;;24.11;nan;-24486.00;4992097;28;20209;-58
2022/08/30 02:13:57;;;;;;;9.15;5.38;;;;;;;23.76;nan;-24476.34;4989926;28;20306;-57
2022/08/30 02:16:24;;;;;;;10.88;6.57;;;;;;;23.94;nan;-24481.19;5006659;28;20211;-57
2022/08/30 02:18:51;;;;;;;8.63;5.53;;;;;;;23.72;nan;-24475.38;4991513;28;20227;-58
2022/08/30 02:21:18;;;;;;;14.00;8.00;;;;;;;23.94;nan;-24481.19;4991895;28;20213;-57
2022/08/30 02:23:44;;;;;;;8.55;5.88;;;;;;;23.45;nan;-24467.78;4993455;28;20291;-59
2022/08/30 02:26:11;;;;;;;9.32;5.60;;;;;;;23.92;nan;-24480.63;4992603;28;20715;-57
2022/08/30 02:28:37;;;;;;;9.10;6.10;;;;;;;23.62;nan;-24472.63;4990973;28;20633;-59
2022/08/30 02:31:03;;;;;;;8.57;5.60;;;;;;;23.89;nan;-24479.81;4992723;28;20184;-58
2022/08/30 02:33:30;;;;;;;9.20;5.90;;;;;;;23.67;nan;-24473.88;4990289;28;20203;-56
2022/08/30 02:35:56;;;;;;;9.77;5.80;;;;;;;23.54;nan;-24470.41;4990822;28;20200;-59
2022/08/30 02:38:22;;;;;;;12.15;5.93;;;;;;;23.92;nan;-24480.63;4991335;28;20272;-57
2022/08/30 02:40:48;;;;;;;10.68;6.50;;;;;;;23.69;nan;-24474.56;4991739;28;20606;-59
2022/08/30 02:43:14;;;;;;;10.98;5.95;;;;;;;23.86;nan;-24478.97;4991297;28;20204;-58
2022/08/30 02:45:40;;;;;;;10.63;5.93;;;;;;;23.63;nan;-24472.91;4992366;28;20524;-57
2022/08/30 02:48:05;;;;;;;13.35;6.70;;;;;;;23.57;nan;-24471.13;5001977;28;20180;-58
2022/08/30 02:50:31;;;;;;;10.45;5.85;;;;;;;23.91;nan;-24480.50;5006528;28;20614;-59
2022/08/30 02:52:57;;;;;;;10.45;6.45;;;;;;;23.48;nan;-24468.78;5013243;28;20180;-57
2022/08/30 02:55:22;;;;;;;13.60;6.95;;;;;;;23.69;nan;-24474.56;5006856;28;20267;-58
2022/08/30 02:57:48;;;;;;;12.45;6.85;;;;;;;23.52;nan;-24469.88;5011022;28;20211;-58
2022/08/30 03:00:18;;;;;;;11.57;6.75;;;;;;;23.69;nan;-24474.44;5010815;28;20211;-59
2022/08/30 03:02:44;;;;;;;15.38;6.60;;;;;;;23.69;nan;-24474.44;5011732;28;20291;-59
2022/08/30 03:05:11;;;;;;;9.98;5.97;;;;;;;23.76;nan;-24476.50;5007949;28;20729;-59
2022/08/30 03:07:38;;;;;;;9.57;5.88;;;;;;;23.56;nan;-24470.97;5006341;28;20183;-58
2022/08/30 03:10:04;;;;;;;10.60;6.45;;;;;;;23.60;nan;-24472.06;5006424;28;20176;-57
2022/08/30 03:12:31;;;;;;;10.10;5.88;;;;;;;23.38;nan;-24466.00;5007175;28;20250;-59
2022/08/30 03:14:57;;;;;;;10.95;6.72;;;;;;;23.59;nan;-24471.66;5011940;28;20186;-60
2022/08/30 03:17:22;;;;;;;14.27;6.55;;;;;;;23.70;nan;-24474.84;5007991;28;20620;-59
2022/08/30 03:19:47;;;;;;;9.43;6.32;;;;;;;23.31;nan;-24464.06;5003481;28;20216;-61
2022/08/30 03:22:13;;;;;;;10.07;5.85;;;;;;;23.23;nan;-24462.00;5008066;28;20549;-60
2022/08/30 03:24:39;;;;;;;14.55;7.05;;;;;;;23.21;nan;-24461.31;5006181;28;20242;-60
2022/08/30 03:27:06;;;;;;;11.15;6.53;;;;;;;23.33;nan;-24464.63;5005627;28;20176;-60
2022/08/30 03:29:31;;;;;;;14.38;7.32;;;;;;;23.57;nan;-24471.13;5002864;28;20686;-59
2022/08/30 03:31:57;;;;;;;12.38;6.82;;;;;;;23.57;nan;-24471.25;5010276;28;20790;-59
2022/08/30 03:34:24;;;;;;;10.10;6.20;;;;;;;23.39;nan;-24466.28;4983202;28;20187;-58
2022/08/30 03:36:52;;;;;;;10.30;6.03;;;;;;;23.19;nan;-24460.75;5004801;28;20204;-59
2022/08/30 03:39:18;;;;;;;13.48;6.85;;;;;;;23.42;nan;-24467.09;5001606;28;20297;-60
2022/08/30 03:41:44;;;;;;;10.93;6.65;;;;;;;22.90;nan;-24453.00;5012511;28;20319;-59
2022/08/30 03:44:10;;;;;;;9.15;5.72;;;;;;;23.11;nan;-24458.53;5009608;28;20187;-58
2022/08/30 03:46:36;;;;;;;10.48;6.75;;;;;;;23.28;nan;-24463.25;5002499;28;20669;-59
2022/08/30 03:49:02;;;;;;;9.40;6.43;;;;;;;23.14;nan;-24459.38;5010385;28;20644;-61
2022/08/30 03:51:28;;;;;;;11.48;6.25;;;;;;;23.08;nan;-24457.84;4997187;28;20239;-60
2022/08/30 03:53:53;;;;;;;10.85;6.80;;;;;;;23.28;nan;-24463.25;5004547;28;20180;-59
2022/08/30 03:56:19;;;;;;;9.43;6.30;;;;;;;23.10;nan;-24458.25;5012163;28;20192;-57
2022/08/30 03:58:45;;;;;;;9.82;6.65;;;;;;;23.33;nan;-24464.63;5010192;28;20212;-58
2022/08/30 04:01:10;;;;;;;10.52;6.45;;;;;;;23.31;nan;-24464.06;5000446;28;20698;-59
2022/08/30 04:03:36;;;;;;;12.73;6.80;;;;;;;23.52;nan;-24469.88;4997472;28;20191;-59
2022/08/30 04:06:02;;;;;;;11.25;7.03;;;;;;;23.23;nan;-24461.84;5000469;28;20194;-59
2022/08/30 04:08:28;;;;;;;11.20;6.85;;;;;;;23.38;nan;-24466.00;5006532;28;20597;-59
2022/08/30 04:10:54;;;;;;;9.43;6.38;;;;;;;23.68;nan;-24474.28;5010583;28;20179;-60
2022/08/30 04:13:21;;;;;;;11.77;6.68;;;;;;;23.63;nan;-24472.78;5008862;28;20219;-59
2022/08/30 04:15:47;;;;;;;10.77;7.50;;;;;;;23.38;nan;-24466.00;4998330;28;20182;-58
2022/08/30 04:18:13;;;;;;;12.35;6.97;;;;;;;23.82;nan;-24477.88;5011581;28;20190;-60
2022/08/30 04:20:38;;;;;;;10.55;6.53;;;;;;;23.87;nan;-24479.38;5011677;28;20626;-60
2022/08/30 04:23:06;;;;;;;11.63;6.47;;;;;;;24.55;nan;-24497.88;5009263;28;20342;-60
2022/08/30 04:25:32;;;;;;;11.07;6.78;;;;;;;24.61;nan;-24499.53;5007267;28;20693;-60
2022/08/30 04:27:58;;;;;;;9.25;6.30;;;;;;;24.58;nan;-24498.69;5009617;28;20259;-60
2022/08/30 04:30:23;;;;;;;9.93;6.38;;;;;;;25.04;nan;-24511.25;5006562;28;20744;-59
2022/08/30 04:32:49;;;;;;;11.88;7.10;;;;;;;24.96;nan;-24509.03;5011560;28;20650;-60
2022/08/30 04:35:14;;;;;;;12.80;6.93;;;;;;;25.38;nan;-24520.59;5011417;28;20179;-59
2022/08/30 04:37:41;;;;;;;12.13;6.60;;;;;;;24.91;nan;-24507.66;5010284;28;20302;-59
2022/08/30 04:40:07;;;;;;;13.38;6.60;;;;;;;24.61;nan;-24499.66;5005813;28;20183;-60
2022/08/30 04:42:33;;;;;;;10.02;6.28;;;;;;;25.07;nan;-24512.06;5011204;28;20215;-59
2022/08/30 04:45:11;;;;;;;11.70;6.35;;;;;;;25.27;nan;-24517.44;5010652;28;20283;-60
2022/08/30 04:47:38;;;;;;;13.10;6.55;;;;;;;24.97;nan;-24509.31;5011129;28;20665;-58
2022/08/30 04:50:05;;;;;;;13.40;6.65;;;;;;;25.04;nan;-24511.38;5011138;28;20259;-60
2022/08/30 04:52:31;;;;;;;13.07;6.55;;;;;;;25.29;nan;-24518.13;5010708;28;20172;-61
2022/08/30 04:54:57;;;;;;;14.30;6.55;;;;;;;25.33;nan;-24519.22;5004385;28;20209;-59
2022/08/30 04:57:24;;;;;;;15.13;7.38;;;;;;;25.51;nan;-24524.03;5010736;28;20262;-60
2022/08/30 04:59:50;;;;;;;15.80;7.97;;;;;;;25.59;nan;-24526.25;5011024;28;20263;-60
2022/08/30 05:02:16;;;;;;;11.80;5.95;;;;;;;25.37;nan;-24520.31;5010713;28;20259;-57
2022/08/30 05:05:38;;;;;;;10.73;6.55;;;;;;;25.49;nan;-24523.47;5011361;28;20194;-60
2022/08/30 05:07:27;;;;;;;10.50;6.57;;;;;;;25.78;nan;-24531.31;5013032;28;20195;-57
2022/08/30 05:09:52;;;;;;;14.77;5.90;;;;;;;25.76;nan;-24530.91;5014883;28;20176;-58
2022/08/30 05:12:18;;;;;;;7.18;5.22;;;;;;;25.79;nan;-24531.75;5006454;28;20181;-59
2022/08/30 05:14:43;;;;;;;10.18;5.45;;;;;;;25.78;nan;-24531.47;5015239;28;20195;-57
2022/08/30 05:17:09;;;;;;;11.88;6.47;;;;;;;25.76;nan;-24530.78;5014842;28;20773;-58
2022/08/30 05:19:34;;;;;;;9.48;6.43;;;;;;;25.48;nan;-24523.34;5015024;28;20229;-58
2022/08/30 05:22:00;;;;;;;12.27;6.20;;;;;;;25.67;nan;-24528.31;5014800;28;20263;-57
2022/08/30 05:24:25;;;;;;;13.27;6.10;;;;;;;26.12;nan;-24540.69;5014487;28;20195;-60
2022/08/30 05:26:50;;;;;;;9.15;6.13;;;;;;;26.26;nan;-24544.38;5002509;28;20188;-59
2022/08/30 05:29:16;;;;;;;12.93;6.28;;;;;;;26.34;nan;-24546.72;5010857;28;20184;-59
2022/08/30 05:31:43;;;;;;;17.08;6.57;;;;;;;26.24;nan;-24543.84;5000186;28;20659;-60
2022/08/30 05:34:08;;;;;;;8.23;5.93;;;;;;;26.63;nan;-24554.53;5013725;28;20717;-58
2022/08/30 05:36:36;;;;;;;13.68;6.50;;;;;;;26.48;nan;-24550.28;5007903;28;20292;-59
2022/08/30 05:39:03;;;;;;;9.93;6.03;;;;;;;26.45;nan;-24549.59;5014343;28;20639;-60
2022/08/30 05:41:28;;;;;;;10.50;6.25;;;;;;;26.30;nan;-24545.63;5014182;28;20176;-59
2022/08/30 05:43:56;;;;;;;9.80;6.10;;;;;;;26.58;nan;-24553.03;5014159;28;20249;-61
2022/08/30 05:46:22;;;;;;;8.70;5.25;;;;;;;26.63;nan;-24554.41;5014184;28;20241;-60
2022/08/30 05:48:49;;;;;;;7.72;5.47;;;;;;;26.62;nan;-24554.13;5014196;28;20176;-58
2022/08/30 05:51:18;;;;;;;8.80;5.88;;;;;;;26.46;nan;-24549.75;5014042;28;20206;-59
2022/08/30 05:53:46;;;;;;;9.88;6.40;;;;;;;26.45;nan;-24549.59;5014435;28;20980;-59
2022/08/30 05:56:14;;;;;;;13.68;6.07;;;;;;;26.32;nan;-24546.16;5014399;28;20701;-58
2022/08/30 05:58:39;;;;;;;14.57;5.80;;;;;;;26.30;nan;-24545.47;5014072;28;20176;-59
2022/08/30 06:01:05;;;;;;;12.07;6.15;;;;;;;26.60;nan;-24553.59;5014093;28;20529;-60
2022/08/30 06:03:31;;;;;;;12.15;6.30;;;;;;;26.20;nan;-24542.88;5014002;28;20623;-58
2022/08/30 06:05:58;;;;;;;11.05;5.28;;;;;;;26.23;nan;-24543.56;5014020;28;20655;-59
2022/08/30 06:08:24;;;;;;;8.23;5.95;;;;;;;26.43;nan;-24549.06;5013856;28;20587;-59
2022/08/30 06:10:49;;;;;;;9.80;6.43;;;;;;;26.52;nan;-24551.38;5011952;28;20234;-59
2022/08/30 06:13:15;;;;;;;15.45;6.35;;;;;;;26.90;nan;-24561.81;5009243;28;20215;-59
2022/08/30 06:15:43;;;;;;;9.10;5.72;;;;;;;26.79;nan;-24558.94;5013489;28;20715;-59
2022/08/30 06:18:08;;;;;;;10.65;6.05;;;;;;;26.55;nan;-24552.22;5013383;28;20180;-57
2022/08/30 06:20:42;;;;;;;7.60;5.32;;;;;;;26.81;nan;-24559.50;5013163;28;20231;-60
2022/08/30 06:23:08;;;;;;;8.82;5.60;;;;;;;26.65;nan;-24555.09;5014241;28;20184;-60
2022/08/30 06:25:37;;;;;;;10.88;5.95;;;;;;;26.93;nan;-24562.50;5013743;28;20176;-59
2022/08/30 06:28:05;;;;;;;9.38;5.85;;;;;;;27.48;nan;-24577.44;5014386;28;20176;-57
2022/08/30 06:30:31;;;;;;;10.38;6.30;;;;;;;27.36;nan;-24574.31;5013594;28;20272;-57
2022/08/30 06:32:57;;;;;;;8.60;5.88;;;;;;;27.35;nan;-24574.03;5013551;28;20168;-59
2022/08/30 06:35:22;;;;;;;8.77;5.80;;;;;;;27.10;nan;-24567.31;5013350;28;20176;-59
2022/08/30 06:37:48;;;;;;;10.40;5.70;;;;;;;27.18;nan;-24569.50;5013792;28;20565;-59
2022/08/30 06:40:15;;;;;;;11.07;6.00;;;;;;;27.41;nan;-24575.53;5013313;28;20271;-60
2022/08/30 06:42:40;;;;;;;15.82;5.47;;;;;;;27.70;nan;-24583.47;5013294;28;20211;-57
2022/08/30 06:45:06;;;;;;;9.57;5.28;;;;;;;27.40;nan;-24575.41;5012986;28;20230;-59
2022/08/30 06:47:31;;;;;;;12.13;6.05;;;;;;;27.56;nan;-24579.78;5013522;28;20179;-58
2022/08/30 06:49:57;;;;;;;7.78;5.00;;;;;;;27.61;nan;-24581.16;5006749;28;20563;-57
2022/08/30 06:52:23;;;;;;;9.52;5.53;;;;;;;27.63;nan;-24581.56;5013417;28;20588;-58
2022/08/30 06:54:49;;;;;;;9.43;5.63;;;;;;;28.35;nan;-24601.00;5013442;28;20560;-58
2022/08/30 06:57:15;;;;;;;9.10;5.93;;;;;;;28.47;nan;-24604.44;5012019;28;20207;-58
2022/08/30 06:59:40;;;;;;;11.70;6.28;;;;;;;28.49;nan;-24604.84;5007129;28;20647;-58
2022/08/30 07:02:06;;;;;;;12.02;5.93;;;;;;;28.87;nan;-24615.09;5013093;28;20195;-57
2022/08/30 07:04:32;;;;;;;8.57;5.10;;;;;;;28.80;nan;-24613.19;5012779;28;20175;-57
2022/08/30 07:06:57;;;;;;;9.05;5.70;;;;;;;28.43;nan;-24603.19;5012956;28;20187;-59
2022/08/30 07:09:23;;;;;;;9.95;5.75;;;;;;;28.83;nan;-24614.00;5013003;28;20259;-60
2022/08/30 07:11:50;;;;;;;12.25;5.57;;;;;;;28.88;nan;-24615.50;5012884;28;20176;-58
2022/08/30 07:14:16;;;;;;;10.27;6.05;;;;;;;28.55;nan;-24606.47;5012735;28;20263;-58
2022/08/30 07:16:43;;;;;;;9.70;5.57;;;;;;;28.77;nan;-24612.50;5012844;28;20196;-58
2022/08/30 07:19:08;;;;;;;8.35;5.00;;;;;;;28.30;nan;-24599.78;5012270;28;20688;-60
2022/08/30 07:21:39;;;;;;;8.70;5.22;;;;;;;28.41;nan;-24602.66;5012990;28;20176;-58
2022/08/30 07:24:06;;;;;;;8.77;5.65;;;;;;;28.89;nan;-24615.78;5012794;28;20651;-58
2022/08/30 07:26:48;;;;;;;7.97;5.30;;;;;;;28.85;nan;-24614.69;5012626;28;20179;-60
2022/08/30 07:29:14;;;;;;;9.80;6.10;;;;;;;29.09;nan;-24620.97;5011881;28;20188;-59
2022/08/30 07:31:40;;;;;;;13.30;6.15;;;;;;;29.38;nan;-24628.91;5005681;28;20202;-58
2022/08/30 07:34:07;;;;;;;7.28;5.00;;;;;;;29.61;nan;-24635.19;5013008;28;20570;-59
2022/08/30 07:36:35;;;;;;;8.88;4.97;;;;;;;29.75;nan;-24638.84;5011699;28;20192;-59
2022/08/30 07:39:00;;;;;;;9.10;4.68;;;;;;;29.72;nan;-24638.19;5012022;28;20184;-60
2022/08/30 07:41:32;;;;;;;8.02;5.05;;;;;;;29.96;nan;-24644.59;4993508;28;20250;-61
2022/08/30 07:43:58;;;;;;;8.60;4.68;;;;;;;30.17;nan;-24650.31;4992155;28;20161;-58
2022/08/30 07:46:26;;;;;;;7.50;5.38;;;;;;;29.95;nan;-24644.19;4992106;28;20678;-59
2022/08/30 07:48:54;;;;;;;9.73;5.07;;;;;;;29.69;nan;-24637.22;4991422;28;20223;-58
2022/08/30 07:51:22;;;;;;;7.45;5.13;;;;;;;29.87;nan;-24642.13;4992177;28;20228;-58
2022/08/30 07:53:47;;;;;;;8.48;5.10;;;;;;;29.84;nan;-24641.44;4992193;28;20226;-58
2022/08/30 07:56:13;;;;;;;10.02;5.40;;;;;;;29.98;nan;-24645.13;4991676;28;20196;-58
2022/08/30 07:58:38;;;;;;;8.27;4.90;;;;;;;30.00;nan;-24645.69;4991690;28;20327;-60
2022/08/30 08:01:06;;;;;;;8.38;5.55;;;;;;;30.12;nan;-24648.94;4991384;28;20644;-59
2022/08/30 08:03:32;;;;;;;8.43;5.10;;;;;;;30.04;nan;-24646.63;4990680;28;20556;-58
2022/08/30 08:06:00;;;;;;;8.80;5.43;;;;;;;30.50;nan;-24659.19;4991560;28;20174;-61
2022/08/30 08:08:26;;;;;;;7.28;4.95;;;;;;;30.30;nan;-24653.72;4991451;28;20203;-62
2022/08/30 08:10:51;;;;;;;6.68;4.57;;;;;;;30.40;nan;-24656.44;4991824;28;20255;-58
2022/08/30 08:13:17;;;;;;;8.23;5.72;;;;;;;30.02;nan;-24646.09;5000586;28;20573;-60
2022/08/30 08:15:43;;;;;;;7.07;5.07;;;;;;;29.94;nan;-24643.91;4998550;28;20238;-61
2022/08/30 08:18:08;;;;;;;9.15;5.60;;;;;;;30.10;nan;-24648.28;5006074;28;20288;-59
2022/08/30 08:20:34;;;;;;;10.73;6.18;;;;;;;30.24;nan;-24652.09;5011030;28;20223;-60
2022/08/30 08:23:00;;;;;;;11.10;5.68;;;;;;;30.03;nan;-24646.50;5011432;28;20651;-61
2022/08/30 08:25:26;;;;;;;7.95;5.63;;;;;;;30.18;nan;-24650.59;5011343;28;20194;-56
2022/08/30 08:27:51;;;;;;;9.23;5.55;;;;;;;30.27;nan;-24652.91;5011038;28;20203;-60
2022/08/30 08:30:19;;;;;;;7.75;5.93;;;;;;;30.10;nan;-24648.28;5011459;28;20176;-60
2022/08/30 08:32:45;;;;;;;7.68;5.18;;;;;;;30.22;nan;-24651.53;5010939;28;20598;-59
2022/08/30 08:35:11;;;;;;;8.15;5.32;;;;;;;29.88;nan;-24642.41;5004741;28;20693;-59
2022/08/30 08:37:38;;;;;;;9.13;5.32;;;;;;;30.54;nan;-24660.13;5010492;28;20203;-59
2022/08/30 08:40:05;;;;;;;10.20;5.53;;;;;;;30.58;nan;-24661.34;5013601;28;20198;-57
2022/08/30 08:43:02;;;;;;;8.63;5.18;;;;;;;30.75;nan;-24665.84;5015071;28;20634;-57
2022/08/30 08:45:30;;;;;;;8.63;4.88;;;;;;;30.93;nan;-24670.63;5001089;28;20559;-57
2022/08/30 08:48:02;;;;;;;8.07;5.28;;;;;;;31.19;nan;-24677.56;5000993;28;20190;-59
2022/08/30 08:50:28;;;;;;;9.13;5.05;;;;;;;31.14;nan;-24676.47;5004590;28;20550;-60
2022/08/30 08:55:57;;;;;;;7.78;4.38;;;;;;;30.85;nan;-24668.56;5015114;28;20210;-58
2022/08/30 08:58:29;;;;;;;8.07;5.38;;;;;;;30.97;nan;-24671.69;5014954;28;20175;-58
2022/08/30 09:00:56;;;;;;;8.18;5.72;;;;;;;31.26;nan;-24679.59;5001573;28;20175;-58
2022/08/30 09:03:25;;;;;;;6.15;4.85;;;;;;;31.22;nan;-24678.38;5010263;28;20228;-58
2022/08/30 09:05:52;;;;;;;8.63;5.40;;;;;;;31.23;nan;-24678.78;5013026;28;20190;-57
2022/08/30 09:08:20;;;;;;;9.05;5.00;;;;;;;31.18;nan;-24677.28;5004633;28;20242;-58
2022/08/30 09:10:55;;;;;;;8.52;5.40;;;;;;;31.32;nan;-24681.22;5002768;28;20576;-59
2022/08/30 09:13:23;;;;;;;9.05;5.18;;;;;;;31.53;nan;-24686.81;5004666;28;20696;-58
2022/08/30 09:15:49;;;;;;;7.70;4.57;;;;;;;31.73;nan;-24692.09;5005082;28;20229;-58
2022/08/30 09:18:15;;;;;;;8.65;5.32;;;;;;;31.76;nan;-24693.06;5004248;28;20282;-59
2022/08/30 09:20:51;;;;;;;9.13;5.68;;;;;;;31.92;nan;-24697.28;5007877;28;20321;-60
2022/08/30 09:23:26;;;;;;;8.65;5.07;;;;;;;31.15;nan;-24676.59;5004521;28;20593;-59
2022/08/30 09:25:58;;;;;;;10.00;5.28;;;;;;;31.13;nan;-24676.19;4999704;28;20649;-58
2022/08/30 09:28:27;;;;;;;12.93;4.93;;;;;;;31.50;nan;-24686.13;5009976;28;20190;-59
2022/08/30 09:31:26;;;;;;;8.98;5.18;;;;;;;31.97;nan;-24698.75;5005727;28;20628;-59
2022/08/30 09:34:04;;;;;;;6.57;4.53;;;;;;;31.79;nan;-24693.75;5001904;28;20315;-59
2022/08/30 09:36:38;;;;;;;11.30;5.28;;;;;;;31.57;nan;-24687.91;5009745;28;20195;-57
2022/08/30 09:39:14;;;;;;;11.75;5.32;;;;;;;31.63;nan;-24689.53;5004146;28;20258;-58
2022/08/30 09:41:42;;;;;;;9.13;4.97;;;;;;;31.79;nan;-24693.88;5001795;28;20218;-59
2022/08/30 09:44:20;;;;;;;7.72;5.28;;;;;;;31.82;nan;-24694.69;5001030;28;20183;-58
2022/08/30 09:46:55;;;;;;;8.27;5.43;;;;;;;31.81;nan;-24694.28;5010064;28;20700;-58
2022/08/30 09:49:30;;;;;;;11.88;5.32;;;;;;;31.99;nan;-24699.16;5009620;28;20356;-58
2022/08/30 09:52:16;;;;;;;9.35;5.20;;;;;;;32.20;nan;-24704.88;5013165;28;20189;-57
2022/08/30 09:54:58;;;;;;;6.82;4.80;;;;;;;32.09;nan;-24701.88;5007953;28;20184;-58
2022/08/30 09:57:56;;;;;;;7.60;4.95;;;;;;;31.41;nan;-24683.53;5013698;28;20274;-61
2022/08/30 10:00:30;;;;;;;8.73;5.20;;;;;;;31.56;nan;-24687.75;4993973;28;20555;-58
2022/08/30 10:03:23;;;;;;;7.80;4.82;;;;;;;32.18;nan;-24704.19;5001156;28;20175;-57
2022/08/30 10:06:23;;;;;;;7.45;5.15;;;;;;;32.33;nan;-24708.41;5013676;28;20175;-60
2022/08/30 10:09:19;;;;;;;7.95;4.85;;;;;;;32.46;nan;-24711.66;4995124;28;20279;-58
2022/08/30 10:12:17;;;;;;;6.63;4.80;;;;;;;31.89;nan;-24696.47;5013555;28;20642;-58
2022/08/30 10:15:19;;;;;;;8.82;5.28;;;;;;;31.61;nan;-24688.97;5012420;28;20198;-59
2022/08/30 10:17:47;;;;;;;12.60;6.35;;;;;;;31.89;nan;-24696.47;5013600;28;20187;-59
2022/08/30 10:20:30;;;;;;;7.80;5.03;;;;;;;32.06;nan;-24700.94;5012460;28;20229;-58
2022/08/30 10:23:06;;;;;;;7.43;4.90;;;;;;;31.53;nan;-24686.94;5012692;28;20183;-58
2022/08/30 10:25:44;;;;;;;8.85;5.32;;;;;;;31.26;nan;-24679.47;5012719;28;20171;-58
2022/08/30 10:28:49;;;;;;;8.38;4.82;;;;;;;31.88;nan;-24696.19;5012633;28;20171;-58
2022/08/30 10:31:26;;;;;;;8.00;4.78;;;;;;;32.21;nan;-24705.16;4995199;28;20691;-58
2022/08/30 10:33:57;;;;;;;11.75;5.30;;;;;;;31.81;nan;-24694.28;5006392;28;20197;-58
2022/08/30 10:36:32;;;;;;;8.38;4.60;;;;;;;32.08;nan;-24701.63;5013467;28;20299;-59
2022/08/30 10:39:00;;;;;;;7.10;4.80;;;;;;;32.70;nan;-24718.31;5013254;28;20613;-58
2022/08/30 10:41:36;;;;;;;8.70;5.45;;;;;;;32.55;nan;-24714.09;5013515;28;20183;-57
2022/08/30 10:44:22;;;;;;;10.43;4.78;;;;;;;32.96;nan;-24725.09;5013517;28;20175;-57
2022/08/30 10:47:20;;;;;;;7.25;5.18;;;;;;;33.04;nan;-24727.25;5013318;28;20179;-58
2022/08/30 10:49:48;;;;;;;8.55;4.72;;;;;;;32.95;nan;-24724.81;5013498;28;20172;-57
2022/08/30 10:52:52;;;;;;;6.38;4.75;;;;;;;32.34;nan;-24708.53;4995412;28;20588;-57
2022/08/30 10:55:24;;;;;;;7.90;4.63;;;;;;;32.55;nan;-24714.09;4979599;28;20225;-58
2022/08/30 10:57:51;;;;;;;7.57;4.95;;;;;;;32.01;nan;-24699.84;5012707;28;20583;-58
2022/08/30 11:00:29;;;;;;;6.90;4.57;;;;;;;31.83;nan;-24694.81;5012838;28;20270;-57
2022/08/30 11:03:10;;;;;;;7.47;4.68;;;;;;;32.27;nan;-24706.66;5005790;28;20191;-58
2022/08/30 11:05:59;;;;;;;8.00;4.45;;;;;;;31.86;nan;-24695.63;5006725;28;20613;-60
2022/08/30 11:08:27;;;;;;;7.72;4.75;;;;;;;31.92;nan;-24697.41;5001471;28;20212;-59
2022/08/30 11:11:04;;;;;;;7.95;4.05;;;;;;;31.66;nan;-24690.22;4985221;28;20184;-59
2022/08/30 11:13:34;;;;;;;9.95;4.90;;;;;;;32.01;nan;-24699.72;5001919;28;20180;-59
2022/08/30 11:16:06;;;;;;;8.50;4.75;;;;;;;32.32;nan;-24708.13;5012190;28;20178;-58
2022/08/30 11:18:58;;;;;;;12.48;4.53;;;;;;;32.43;nan;-24711.13;5012411;28;20199;-57
2022/08/30 11:21:35;;;;;;;6.28;4.40;;;;;;;33.04;nan;-24727.41;5008148;28;20562;-59
2022/08/30 11:24:15;;;;;;;6.80;4.45;;;;;;;33.03;nan;-24727.13;5012953;28;20190;-58
2022/08/30 11:26:53;;;;;;;8.65;5.00;;;;;;;33.44;nan;-24737.97;5012765;28;20212;-57
2022/08/30 11:29:27;;;;;;;8.57;5.07;;;;;;;33.58;nan;-24741.75;5012825;28;20175;-58
2022/08/30 11:31:58;;;;;;;6.85;4.88;;;;;;;33.65;nan;-24743.66;5012639;28;20175;-57
2022/08/30 11:34:45;;;;;;;7.47;4.53;;;;;;;33.56;nan;-24741.22;5012342;28;20211;-58
2022/08/30 11:37:39;;;;;;;7.53;5.03;;;;;;;32.88;nan;-24723.19;5012359;28;20217;-61
2022/08/30 11:40:06;;;;;;;7.70;4.90;;;;;;;32.60;nan;-24715.47;5012908;28;20178;-57
2022/08/30 11:42:40;;;;;;;7.10;4.40;;;;;;;32.97;nan;-24725.38;5012658;28;20174;-57
2022/08/30 11:45:21;;;;;;;7.40;4.47;;;;;;;33.14;nan;-24730.09;5012374;28;20618;-58
2022/08/30 11:47:46;;;;;;;6.78;4.75;;;;;;;33.40;nan;-24736.88;5012195;28;20171;-58
2022/08/30 11:50:19;;;;;;;6.85;4.40;;;;;;;33.27;nan;-24733.63;5012334;28;20178;-58
2022/08/30 11:52:56;;;;;;;6.68;4.97;;;;;;;33.34;nan;-24735.25;5012125;28;20186;-57